Time;durP1;ratioP1;P1;durP2;ratioP2;P2;SDS_P1;SDS_P2;PMS_P1;PMS_P2;Temp;Humidity;BMP_temperature;BMP_pressure;BME280_temperature;BME280_humidity;BME280_pressure;Samples;Min_cycle;Max_cycle;Signal;HPM_P1;HPM_P2
2023/10/05 00:02:08;;;;;;;1.60;0.83;;;;;;;16.71;78.49;96110.44;5134674;27;20892;-58
2023/10/05 00:04:42;;;;;;;0.70;0.63;;;;;;;16.97;77.16;96105.53;5135378;27;20453;-59
2023/10/05 00:07:19;;;;;;;3.60;0.60;;;;;;;16.93;77.05;96107.16;5134476;27;20473;-58
2023/10/05 00:09:48;;;;;;;1.47;0.57;;;;;;;16.86;78.26;96107.53;5134759;27;20441;-58
2023/10/05 00:12:20;;;;;;;0.60;0.50;;;;;;;16.89;78.05;96100.81;5133969;27;20521;-59
2023/10/05 00:15:14;;;;;;;1.37;1.37;;;;;;;16.84;77.35;96106.25;5134562;27;20534;-59
2023/10/05 00:17:41;;;;;;;2.50;0.70;;;;;;;16.85;76.86;96097.13;5134794;27;20480;-59
2023/10/05 00:20:21;;;;;;;0.70;0.60;;;;;;;16.44;78.10;96083.47;5135024;27;20435;-59
2023/10/05 00:22:51;;;;;;;3.80;0.87;;;;;;;16.62;78.48;96092.63;5135126;27;20445;-59
2023/10/05 00:25:23;;;;;;;0.40;0.27;;;;;;;16.63;78.02;96095.00;5134640;27;20439;-59
2023/10/05 00:27:53;;;;;;;0.70;0.70;;;;;;;16.51;78.96;96094.59;5134281;27;20466;-58
2023/10/05 00:30:23;;;;;;;0.60;0.53;;;;;;;16.20;80.48;96088.81;5134584;27;20435;-59
2023/10/05 00:32:56;;;;;;;0.67;0.50;;;;;;;16.31;79.35;96054.72;5134955;27;20463;-58
2023/10/05 00:35:27;;;;;;;0.87;0.40;;;;;;;16.55;78.45;96084.94;5134566;27;20447;-58
2023/10/05 00:38:07;;;;;;;2.07;0.60;;;;;;;16.35;79.47;96088.66;5134241;27;20450;-59
2023/10/05 00:40:42;;;;;;;0.40;0.20;;;;;;;16.11;80.18;96063.00;5133892;27;20431;-60
2023/10/05 00:43:24;;;;;;;0.50;0.40;;;;;;;16.54;78.33;96090.59;5121224;27;20430;-58
2023/10/05 00:45:57;;;;;;;0.50;0.40;;;;;;;16.60;78.16;96092.09;5133953;27;20985;-58
2023/10/05 00:48:34;;;;;;;0.90;0.90;;;;;;;16.61;77.81;96094.50;5134601;27;20516;-58
2023/10/05 00:51:12;;;;;;;1.60;0.60;;;;;;;16.50;78.54;96101.84;5133683;27;20430;-58
2023/10/05 00:53:41;;;;;;;1.53;0.40;;;;;;;15.89;81.80;96083.00;5134318;27;20431;-58
2023/10/05 00:56:12;;;;;;;0.60;0.50;;;;;;;15.92;82.74;96110.25;5107596;27;20431;-59
2023/10/05 00:58:44;;;;;;;2.83;0.60;;;;;;;15.23;84.06;96002.69;5134357;27;20443;-58
2023/10/05 01:01:22;;;;;;;1.80;0.60;;;;;;;15.98;83.99;96112.63;5134653;27;20457;-58
2023/10/05 01:04:18;;;;;;;0.73;0.70;;;;;;;15.63;87.60;96091.59;5119982;27;20439;-58
2023/10/05 01:06:55;;;;;;;3.77;0.40;;;;;;;15.54;86.87;96088.72;5133305;27;20434;-58
2023/10/05 01:09:40;;;;;;;0.50;0.40;;;;;;;15.72;86.28;96109.38;5134329;27;20437;-59
2023/10/05 01:12:22;;;;;;;0.60;0.50;;;;;;;15.73;86.50;96100.31;5136375;27;20495;-58
2023/10/05 01:14:52;;;;;;;0.60;0.43;;;;;;;15.40;91.45;96105.66;5134072;27;20443;-59
2023/10/05 01:17:25;;;;;;;0.50;0.33;;;;;;;15.53;89.95;96094.34;5133999;27;20482;-59
2023/10/05 01:19:57;;;;;;;0.70;0.70;;;;;;;15.59;89.51;96101.22;5119676;27;20447;-59
2023/10/05 01:22:32;;;;;;;0.50;0.30;;;;;;;15.64;89.10;96101.97;5133702;27;20462;-59
2023/10/05 01:25:04;;;;;;;0.50;0.40;;;;;;;15.24;89.12;96041.69;5133348;27;20532;-59
2023/10/05 01:27:33;;;;;;;0.70;0.50;;;;;;;15.82;87.08;96105.81;5133631;27;20524;-60
2023/10/05 01:30:03;;;;;;;0.40;0.30;;;;;;;15.79;86.75;96098.34;5133054;27;20445;-60
2023/10/05 01:32:32;;;;;;;0.40;0.30;;;;;;;15.67;88.26;96106.75;5133282;27;20435;-60
2023/10/05 01:35:06;;;;;;;0.47;0.30;;;;;;;15.70;87.26;96103.53;5133847;27;20424;-60
2023/10/05 01:37:39;;;;;;;0.40;0.30;;;;;;;15.70;86.62;96105.41;5133251;27;20462;-59
2023/10/05 01:40:19;;;;;;;0.60;0.40;;;;;;;15.67;87.27;96105.97;5133282;27;20442;-60
2023/10/05 01:42:51;;;;;;;1.30;0.90;;;;;;;15.87;84.83;96109.25;5133054;27;20426;-59
2023/10/05 01:45:24;;;;;;;0.90;0.90;;;;;;;15.40;83.91;96042.34;5132531;27;20868;-60
2023/10/05 01:47:54;;;;;;;0.50;0.40;;;;;;;15.96;83.53;96106.75;5133324;27;20474;-60
2023/10/05 01:50:23;;;;;;;0.77;0.73;;;;;;;15.52;84.20;96069.50;5133349;27;20431;-60
2023/10/05 01:53:01;;;;;;;0.60;0.60;;;;;;;15.38;87.54;96119.28;5132804;27;20431;-60
2023/10/05 01:55:34;;;;;;;0.50;0.30;;;;;;;15.65;85.70;96118.81;5133488;27;20431;-59
2023/10/05 01:58:03;;;;;;;0.40;0.30;;;;;;;15.82;84.27;96119.19;5132741;27;20472;-59
2023/10/05 02:00:37;;;;;;;0.40;0.30;;;;;;;15.77;84.49;96112.00;5133283;27;20521;-59
2023/10/05 02:03:07;;;;;;;0.50;0.50;;;;;;;15.04;89.84;96118.47;5133003;27;20557;-59
2023/10/05 02:05:37;;;;;;;0.63;0.43;;;;;;;15.01;91.95;96127.81;5132912;27;20426;-59
2023/10/05 02:08:06;;;;;;;0.50;0.40;;;;;;;15.16;89.62;96098.34;5132965;27;20466;-59
2023/10/05 02:10:39;;;;;;;1.00;0.77;;;;;;;15.26;89.15;96121.50;5132855;27;20435;-58
2023/10/05 02:13:12;;;;;;;0.40;0.30;;;;;;;15.45;86.97;96109.13;5133393;27;20452;-58
2023/10/05 02:15:41;;;;;;;0.60;0.60;;;;;;;15.67;85.23;96112.13;5132642;27;20879;-59
2023/10/05 02:18:22;;;;;;;0.60;0.40;;;;;;;15.78;84.76;96116.28;5132391;27;20438;-59
2023/10/05 02:20:56;;;;;;;1.03;0.80;;;;;;;15.94;82.70;96113.47;5132738;27;20918;-59
2023/10/05 02:23:28;;;;;;;0.50;0.30;;;;;;;15.53;83.55;96075.66;5132862;27;20429;-59
2023/10/05 02:26:05;;;;;;;0.40;0.30;;;;;;;15.85;82.67;96099.91;5132706;27;20439;-58
2023/10/05 02:28:35;;;;;;;5.40;0.80;;;;;;;15.42;82.54;96050.06;5105992;27;20473;-59
2023/10/05 02:31:08;;;;;;;0.60;0.43;;;;;;;15.71;81.61;96099.75;5131998;27;20438;-59
2023/10/05 02:33:40;;;;;;;0.80;0.63;;;;;;;15.75;81.70;96124.88;5132546;27;21004;-59
2023/10/05 02:36:17;;;;;;;0.83;0.83;;;;;;;15.62;81.75;96135.41;5132612;27;20438;-59
2023/10/05 02:38:53;;;;;;;5.20;0.60;;;;;;;15.58;83.13;96135.19;5132761;27;20445;-59
2023/10/05 02:41:37;;;;;;;0.50;0.30;;;;;;;15.69;81.60;96142.03;5132300;28;20930;-58
2023/10/05 02:44:19;;;;;;;2.53;1.00;;;;;;;15.66;82.02;96147.91;5131793;28;20438;-60
2023/10/05 02:46:48;;;;;;;0.73;0.50;;;;;;;15.16;85.45;96124.25;5132680;27;20498;-59
2023/10/05 02:49:18;;;;;;;0.60;0.50;;;;;;;14.95;89.65;96147.59;5132060;28;20553;-59
2023/10/05 02:51:47;;;;;;;0.73;0.70;;;;;;;14.85;90.65;96139.66;5132889;28;20789;-60
2023/10/05 02:54:16;;;;;;;0.73;0.73;;;;;;;14.99;89.80;96147.88;5131828;28;20434;-59
2023/10/05 02:56:49;;;;;;;0.50;0.40;;;;;;;14.49;92.36;96124.91;5132217;27;20503;-60
2023/10/05 02:59:20;;;;;;;0.70;0.70;;;;;;;14.49;92.64;96125.72;5132063;27;20437;-59
2023/10/05 03:01:49;;;;;;;0.80;0.80;;;;;;;14.92;89.57;96150.84;5132556;27;20962;-59
2023/10/05 03:04:21;;;;;;;0.53;0.53;;;;;;;14.87;89.72;96148.22;5132387;27;21030;-59
2023/10/05 03:06:52;;;;;;;0.50;0.40;;;;;;;14.81;88.67;96133.28;5117557;28;20435;-58
2023/10/05 03:09:24;;;;;;;0.60;0.30;;;;;;;14.78;90.44;96160.53;5132147;28;20523;-59
2023/10/05 03:11:54;;;;;;;0.77;0.77;;;;;;;14.91;89.53;96157.25;5131748;27;20435;-59
2023/10/05 03:14:23;;;;;;;1.37;1.30;;;;;;;15.08;87.46;96154.22;5132377;27;20438;-58
2023/10/05 03:16:57;;;;;;;0.63;0.60;;;;;;;15.01;88.30;96169.75;5131622;28;20476;-59
2023/10/05 03:19:26;;;;;;;0.73;0.73;;;;;;;15.08;87.25;96164.88;5133945;28;20460;-59
2023/10/05 03:21:58;;;;;;;0.87;0.40;;;;;;;14.92;88.20;96158.88;5131530;27;20466;-59
2023/10/05 03:24:26;;;;;;;0.70;0.57;;;;;;;14.77;89.54;96161.63;5132239;28;20950;-59
2023/10/05 03:26:56;;;;;;;0.70;0.40;;;;;;;14.73;91.10;96162.41;5131818;28;20537;-59
2023/10/05 03:29:25;;;;;;;1.07;0.67;;;;;;;14.82;90.79;96166.13;5132044;28;20496;-58
2023/10/05 03:32:02;;;;;;;0.60;0.50;;;;;;;14.34;91.28;96108.97;5135441;27;20813;-59
2023/10/05 03:34:32;;;;;;;4.63;0.80;;;;;;;14.71;92.04;96161.91;5135904;27;20430;-59
2023/10/05 03:37:04;;;;;;;2.63;1.23;;;;;;;14.70;91.44;96168.31;5135684;27;20441;-59
2023/10/05 03:39:38;;;;;;;0.70;0.60;;;;;;;14.46;90.02;96130.78;5135163;27;20435;-60
2023/10/05 03:42:13;;;;;;;0.50;0.30;;;;;;;14.74;90.00;96164.81;5135446;27;20930;-60
2023/10/05 03:44:44;;;;;;;0.70;0.40;;;;;;;14.77;89.11;96166.16;5135774;27;20430;-59
2023/10/05 03:47:13;;;;;;;1.00;0.90;;;;;;;14.60;89.63;96156.59;5135727;27;20430;-59
2023/10/05 03:49:56;;;;;;;0.57;0.37;;;;;;;14.73;88.80;96163.22;5135374;27;20518;-58
2023/10/05 03:52:29;;;;;;;1.27;1.17;;;;;;;14.50;89.03;96132.63;5135352;27;20487;-58
2023/10/05 03:55:04;;;;;;;0.80;0.80;;;;;;;14.84;87.60;96162.09;5135521;27;20431;-58
2023/10/05 03:57:34;;;;;;;5.93;0.73;;;;;;;14.67;88.72;96167.00;5135222;27;20516;-60
2023/10/05 04:00:18;;;;;;;0.50;0.50;;;;;;;14.61;89.43;96160.88;5135548;27;20830;-59
2023/10/05 04:02:47;;;;;;;1.30;0.83;;;;;;;13.85;89.61;96061.66;5135093;27;20466;-59
2023/10/05 04:05:18;;;;;;;3.07;0.90;;;;;;;14.50;91.22;96171.84;5135263;27;20484;-59
2023/10/05 04:07:47;;;;;;;0.70;0.40;;;;;;;14.66;89.65;96168.06;5135626;27;20436;-59
2023/10/05 04:10:21;;;;;;;1.30;0.67;;;;;;;14.63;89.24;96171.28;5132443;27;20470;-59
2023/10/05 04:12:53;;;;;;;1.13;1.13;;;;;;;14.38;89.22;96132.16;5125836;27;20435;-59
2023/10/05 04:15:21;;;;;;;0.87;0.60;;;;;;;14.64;88.86;96162.19;5134656;27;20446;-59
2023/10/05 04:17:50;;;;;;;1.63;0.50;;;;;;;14.54;89.76;96167.59;5135291;27;20497;-59
2023/10/05 04:20:27;;;;;;;2.00;1.80;;;;;;;14.64;89.55;96164.88;5134718;27;20435;-60
2023/10/05 04:22:55;;;;;;;0.70;0.60;;;;;;;14.78;88.08;96173.88;5134908;27;21007;-59
2023/10/05 04:25:24;;;;;;;2.50;0.70;;;;;;;14.78;87.31;96171.19;5108352;27;20445;-59
2023/10/05 04:27:54;;;;;;;0.50;0.30;;;;;;;14.77;87.28;96172.28;5135128;27;20503;-59
2023/10/05 04:30:24;;;;;;;2.20;0.57;;;;;;;14.81;86.92;96167.97;5134620;27;20962;-59
2023/10/05 04:32:53;;;;;;;0.60;0.50;;;;;;;14.86;86.37;96169.81;5134282;27;20439;-58
2023/10/05 04:35:26;;;;;;;1.80;0.70;;;;;;;14.60;85.98;96134.47;5134213;27;20497;-58
2023/10/05 04:37:55;;;;;;;0.50;0.40;;;;;;;14.80;85.97;96162.94;5134893;27;20431;-58
2023/10/05 04:40:24;;;;;;;0.80;0.50;;;;;;;14.74;86.52;96180.84;5134145;27;20434;-58
2023/10/05 04:42:58;;;;;;;4.03;0.60;;;;;;;14.97;85.26;96182.06;5132735;27;20431;-60
2023/10/05 04:45:28;;;;;;;3.30;0.57;;;;;;;15.07;84.17;96169.44;5134840;27;20700;-60
2023/10/05 04:47:58;;;;;;;0.53;0.30;;;;;;;15.14;84.78;96183.28;5106732;27;20474;-58
2023/10/05 04:50:28;;;;;;;0.60;0.60;;;;;;;15.00;85.81;96187.63;5133481;27;20470;-59
2023/10/05 04:53:00;;;;;;;0.70;0.60;;;;;;;14.71;90.12;96186.72;5124066;27;20447;-59
2023/10/05 04:55:32;;;;;;;0.60;0.40;;;;;;;15.27;85.24;96189.88;5133542;27;20445;-59
2023/10/05 04:58:21;;;;;;;0.60;0.40;;;;;;;15.22;86.85;96197.94;5133545;27;20439;-59
2023/10/05 05:01:15;;;;;;;0.70;0.70;;;;;;;15.24;100.00;96153.84;5134332;27;20443;-63
2023/10/05 05:03:55;;;;;;;0.50;0.40;;;;;;;16.59;100.00;96193.03;5133890;27;21017;-59
2023/10/05 05:06:27;;;;;;;0.40;0.30;;;;;;;17.12;98.38;96181.09;5133463;27;20517;-60
2023/10/05 05:08:55;;;;;;;3.97;1.00;;;;;;;16.90;90.88;96159.41;5133111;27;20530;-60
2023/10/05 05:11:25;;;;;;;0.60;0.57;;;;;;;17.40;94.41;96186.59;5134229;27;20469;-60
2023/10/05 05:13:55;;;;;;;0.80;0.40;;;;;;;17.83;88.93;96185.41;5133708;27;20932;-59
2023/10/05 05:16:24;;;;;;;2.93;0.70;;;;;;;17.97;85.99;96185.44;5132723;27;20526;-59
2023/10/05 05:18:55;;;;;;;0.73;0.70;;;;;;;18.12;83.89;96187.84;5131207;27;20446;-60
2023/10/05 05:21:24;;;;;;;0.80;0.80;;;;;;;17.70;79.39;96192.31;5131242;27;20522;-59
2023/10/05 05:23:52;;;;;;;5.00;0.73;;;;;;;17.97;80.50;96185.44;5133543;27;20442;-60
2023/10/05 05:26:21;;;;;;;0.80;0.77;;;;;;;18.10;79.63;96182.00;5132389;27;20514;-59
2023/10/05 05:28:49;;;;;;;7.43;0.67;;;;;;;18.42;78.68;96185.41;5131780;27;21220;-58
2023/10/05 05:31:21;;;;;;;1.40;1.30;;;;;;;18.59;76.71;96190.25;5131974;27;20970;-58
2023/10/05 05:33:49;;;;;;;1.10;0.97;;;;;;;17.63;73.53;96185.75;5133712;27;20449;-58
2023/10/05 05:36:18;;;;;;;1.03;0.93;;;;;;;17.14;73.87;96188.84;5132752;27;20441;-57
2023/10/05 05:38:49;;;;;;;0.90;0.87;;;;;;;17.25;75.70;96201.03;5133464;27;20466;-57
2023/10/05 05:41:19;;;;;;;1.07;0.97;;;;;;;17.92;78.45;96197.06;5133209;27;20514;-58
2023/10/05 05:43:48;;;;;;;0.93;0.83;;;;;;;18.29;73.19;96198.84;5133533;27;20434;-57
2023/10/05 05:46:17;;;;;;;0.90;0.90;;;;;;;18.30;75.46;96195.03;5132976;27;20466;-57
2023/10/05 05:48:52;;;;;;;1.43;0.60;;;;;;;18.25;71.38;96197.81;5133166;27;20434;-56
2023/10/05 05:51:23;;;;;;;0.80;0.50;;;;;;;18.72;73.36;96192.09;5133367;27;20561;-57
2023/10/05 05:53:52;;;;;;;0.60;0.50;;;;;;;18.56;72.57;96195.41;5132263;27;20526;-57
2023/10/05 05:56:28;;;;;;;1.03;0.97;;;;;;;18.20;74.45;96203.28;5133105;27;20934;-57
2023/10/05 05:58:58;;;;;;;0.70;0.40;;;;;;;18.93;71.41;96190.59;5133183;27;20481;-58
2023/10/05 06:01:26;;;;;;;0.90;0.50;;;;;;;19.29;69.82;96197.91;5127477;27;20441;-59
2023/10/05 06:03:57;;;;;;;2.03;1.10;;;;;;;19.23;69.09;96197.22;5131879;27;20434;-58
2023/10/05 06:06:26;;;;;;;0.73;0.67;;;;;;;19.51;66.98;96188.00;5132688;27;20438;-57
2023/10/05 06:08:55;;;;;;;0.80;0.77;;;;;;;19.80;64.58;96190.28;5132652;27;20462;-57
2023/10/05 06:11:25;;;;;;;0.50;0.50;;;;;;;20.14;65.03;96184.31;5132795;27;20501;-56
2023/10/05 06:13:53;;;;;;;1.90;0.97;;;;;;;20.36;63.68;96194.28;5132342;27;20474;-55
2023/10/05 06:16:22;;;;;;;0.80;0.73;;;;;;;20.24;62.90;96190.25;5120038;27;20516;-55
2023/10/05 06:18:51;;;;;;;0.60;0.60;;;;;;;20.68;63.75;96194.75;5132092;27;20487;-55
2023/10/05 06:21:21;;;;;;;5.50;1.23;;;;;;;20.81;62.51;96198.44;5132277;27;20521;-54
2023/10/05 06:23:50;;;;;;;11.00;1.70;;;;;;;20.22;62.75;96205.91;5132799;27;20474;-55
2023/10/05 06:26:19;;;;;;;1.17;1.07;;;;;;;19.98;62.84;96196.59;5132279;27;20435;-55
2023/10/05 06:28:48;;;;;;;2.20;1.17;;;;;;;19.63;64.81;96217.84;5132710;27;21072;-55
2023/10/05 06:31:16;;;;;;;5.17;1.77;;;;;;;19.76;64.68;96216.19;5132683;27;20471;-54
2023/10/05 06:33:46;;;;;;;0.57;0.40;;;;;;;20.39;63.46;96215.22;5132295;27;20997;-56
2023/10/05 06:36:15;;;;;;;0.60;0.40;;;;;;;20.94;62.13;96211.00;5131725;27;20558;-57
2023/10/05 06:38:54;;;;;;;0.50;0.30;;;;;;;20.92;60.21;96220.50;5132661;27;20434;-57
2023/10/05 06:41:23;;;;;;;0.60;0.40;;;;;;;20.75;59.84;96218.53;5132687;27;20918;-58
2023/10/05 06:43:51;;;;;;;8.00;0.80;;;;;;;20.82;60.71;96222.38;5132101;27;21111;-57
2023/10/05 06:46:26;;;;;;;1.23;0.67;;;;;;;20.68;59.64;96162.41;5132411;28;20442;-58
2023/10/05 06:48:57;;;;;;;1.00;0.70;;;;;;;21.64;58.44;96210.81;5132217;28;20440;-58
2023/10/05 06:51:27;;;;;;;8.73;0.90;;;;;;;22.19;57.03;96191.25;5132299;27;21130;-59
2023/10/05 06:53:58;;;;;;;1.20;0.70;;;;;;;22.27;57.62;96206.63;5132306;27;20458;-57
2023/10/05 06:56:27;;;;;;;1.87;1.40;;;;;;;22.44;55.25;96199.28;5132640;27;20442;-57
2023/10/05 06:58:56;;;;;;;0.50;0.40;;;;;;;22.87;53.48;96204.53;5131902;28;20447;-57
2023/10/05 07:01:24;;;;;;;0.87;0.80;;;;;;;22.95;52.30;96156.94;5132559;28;20443;-57
2023/10/05 07:03:55;;;;;;;1.83;0.90;;;;;;;23.87;52.15;96197.19;5132295;28;20435;-57
2023/10/05 07:06:24;;;;;;;1.00;0.90;;;;;;;24.10;49.49;96196.84;5134987;27;20930;-57
2023/10/05 07:08:53;;;;;;;1.13;1.03;;;;;;;23.81;49.20;96201.22;5135424;27;20437;-57
2023/10/05 07:11:24;;;;;;;0.50;0.50;;;;;;;24.21;49.02;96200.75;5136163;27;20485;-58
2023/10/05 07:13:53;;;;;;;0.97;0.77;;;;;;;24.44;49.45;96197.28;5136248;27;20431;-57
2023/10/05 07:16:21;;;;;;;1.13;1.03;;;;;;;24.78;48.48;96190.69;5135816;27;20800;-58
2023/10/05 07:18:50;;;;;;;0.40;0.30;;;;;;;24.74;47.97;96176.22;5135982;27;20581;-58
2023/10/05 07:21:18;;;;;;;3.60;0.77;;;;;;;24.91;47.79;96189.56;5136087;27;20466;-58
2023/10/05 07:23:48;;;;;;;1.47;1.10;;;;;;;24.91;46.95;96189.56;5108939;27;20442;-58
2023/10/05 07:26:17;;;;;;;0.63;0.40;;;;;;;25.25;45.99;96194.53;5135359;27;20518;-57
2023/10/05 07:28:48;;;;;;;0.40;0.30;;;;;;;25.65;45.22;96185.66;5135870;27;20927;-56
2023/10/05 07:31:16;;;;;;;4.40;1.47;;;;;;;25.53;45.00;96166.66;5135631;27;20544;-57
2023/10/05 07:33:44;;;;;;;1.90;1.07;;;;;;;25.18;46.31;96178.03;5135727;27;20470;-57
2023/10/05 07:36:14;;;;;;;0.80;0.70;;;;;;;25.89;45.05;96185.56;5135543;27;20426;-57
2023/10/05 07:38:44;;;;;;;4.43;0.93;;;;;;;26.01;43.52;96168.44;5135991;27;20438;-57
2023/10/05 07:41:12;;;;;;;1.30;1.20;;;;;;;26.71;44.89;96173.00;5135332;27;20945;-56
2023/10/05 07:43:41;;;;;;;0.87;0.53;;;;;;;26.88;43.25;96171.88;5135280;27;20442;-55
2023/10/05 07:46:17;;;;;;;15.70;1.03;;;;;;;27.61;42.01;96166.56;5135714;27;20782;-58
2023/10/05 07:48:47;;;;;;;1.63;1.33;;;;;;;27.59;42.51;96172.38;5134968;27;20438;-55
2023/10/05 07:51:16;;;;;;;0.80;0.80;;;;;;;27.32;41.39;96085.41;5134931;27;20503;-57
2023/10/05 07:53:45;;;;;;;0.60;0.60;;;;;;;27.65;40.14;96170.94;5135288;27;20484;-56
2023/10/05 07:56:13;;;;;;;2.23;2.13;;;;;;;27.39;41.56;96170.78;5109206;27;20504;-56
2023/10/05 07:58:44;;;;;;;1.07;0.47;;;;;;;28.20;40.66;96166.22;5135020;27;20438;-59
2023/10/05 08:01:14;;;;;;;1.80;0.40;;;;;;;28.44;39.57;96174.03;5135077;27;20526;-57
2023/10/05 08:03:45;;;;;;;1.00;0.90;;;;;;;28.27;38.93;96164.41;5134482;27;20477;-57
2023/10/05 08:06:15;;;;;;;0.83;0.70;;;;;;;28.25;39.35;96163.19;5135004;27;20442;-57
2023/10/05 08:08:43;;;;;;;0.90;0.90;;;;;;;28.36;40.14;96158.69;5134556;27;21363;-57
2023/10/05 08:11:15;;;;;;;0.83;0.83;;;;;;;29.07;40.05;96159.91;5135597;27;20470;-57
2023/10/05 08:13:44;;;;;;;1.57;1.20;;;;;;;28.36;39.03;96150.50;5135083;27;20434;-56
2023/10/05 08:16:13;;;;;;;0.80;0.80;;;;;;;29.12;38.72;96140.50;5134576;27;20838;-58
2023/10/05 08:18:43;;;;;;;1.23;1.10;;;;;;;29.18;38.98;96148.00;5133839;27;20888;-59
2023/10/05 08:21:13;;;;;;;0.90;0.83;;;;;;;29.14;38.09;96009.84;5135108;27;20512;-59
2023/10/05 08:23:41;;;;;;;0.90;0.90;;;;;;;29.74;38.12;96139.00;5133889;27;20441;-59
2023/10/05 08:26:12;;;;;;;1.33;1.23;;;;;;;29.62;37.23;96137.31;5135090;27;20488;-60
2023/10/05 08:28:41;;;;;;;1.07;1.07;;;;;;;29.76;36.38;96136.69;5134862;27;20441;-60
2023/10/05 08:31:11;;;;;;;1.80;0.60;;;;;;;30.88;36.39;96126.13;5134229;27;20466;-59
2023/10/05 08:33:39;;;;;;;0.73;0.73;;;;;;;31.32;35.02;96124.09;5134705;27;20445;-59
2023/10/05 08:36:12;;;;;;;1.07;0.83;;;;;;;30.93;35.20;96120.31;5134429;27;20439;-58
2023/10/05 08:38:43;;;;;;;2.77;1.17;;;;;;;30.86;34.38;96113.97;5134796;27;20438;-59
2023/10/05 08:41:14;;;;;;;0.63;0.50;;;;;;;30.52;36.12;96118.78;5134547;27;20934;-59
2023/10/05 08:43:46;;;;;;;2.43;0.73;;;;;;;30.19;36.89;96114.16;5134770;27;20827;-59
2023/10/05 08:46:19;;;;;;;1.17;0.93;;;;;;;29.98;36.05;96119.41;5134331;27;20446;-59
2023/10/05 08:48:49;;;;;;;0.93;0.73;;;;;;;31.01;35.84;96113.75;5134372;27;20438;-59
2023/10/05 08:51:24;;;;;;;0.40;0.30;;;;;;;31.53;35.23;96112.47;5133952;27;20466;-59
2023/10/05 08:53:57;;;;;;;0.93;0.73;;;;;;;31.58;34.55;96108.56;5134734;27;20437;-60
2023/10/05 08:56:26;;;;;;;1.27;1.17;;;;;;;32.19;34.50;96105.66;5134465;27;20434;-60
2023/10/05 08:58:54;;;;;;;0.70;0.70;;;;;;;31.55;34.25;96101.16;5133726;27;20434;-59
2023/10/05 09:01:25;;;;;;;1.10;0.53;;;;;;;31.76;33.79;96098.47;5133850;27;20438;-58
2023/10/05 09:04:01;;;;;;;0.60;0.40;;;;;;;31.77;33.18;96097.31;5132889;27;20862;-52
2023/10/05 09:06:32;;;;;;;0.50;0.50;;;;;;;31.77;34.19;96089.09;5134039;27;20440;-52
2023/10/05 09:09:13;;;;;;;0.60;0.50;;;;;;;31.87;33.69;96091.06;5134044;27;20434;-56
2023/10/05 09:11:43;;;;;;;0.53;0.53;;;;;;;31.81;34.63;96078.91;5133814;27;20985;-56
2023/10/05 09:14:17;;;;;;;8.20;0.70;;;;;;;31.94;33.06;96075.44;5134213;27;20438;-51
2023/10/05 09:16:55;;;;;;;1.80;1.43;;;;;;;31.98;33.08;96080.91;5133501;27;20429;-51
2023/10/05 09:19:29;;;;;;;2.40;1.03;;;;;;;32.10;34.13;96080.59;5133931;27;20545;-51
2023/10/05 09:22:12;;;;;;;0.70;0.40;;;;;;;32.19;32.77;96017.88;5133151;27;20437;-55
2023/10/05 09:24:43;;;;;;;0.60;0.60;;;;;;;33.24;32.85;96074.69;5133129;27;20434;-56
2023/10/05 09:27:15;;;;;;;0.50;0.40;;;;;;;33.98;31.31;96067.34;5133567;27;20835;-55
2023/10/05 09:29:47;;;;;;;0.60;0.60;;;;;;;33.91;31.04;96076.41;5133223;27;20472;-56
2023/10/05 09:32:25;;;;;;;0.57;0.57;;;;;;;33.74;31.93;96072.56;5133633;27;21177;-56
2023/10/05 09:34:56;;;;;;;0.40;0.40;;;;;;;33.62;30.33;96067.53;5133356;27;20464;-57
2023/10/05 09:37:29;;;;;;;0.70;0.70;;;;;;;34.12;31.02;96048.03;5133329;27;20476;-56
2023/10/05 09:40:00;;;;;;;0.40;0.30;;;;;;;34.15;31.09;96052.72;5106156;27;20435;-56
2023/10/05 09:42:35;;;;;;;0.80;0.57;;;;;;;34.57;29.80;96040.63;5133235;27;20466;-55
2023/10/05 09:45:12;;;;;;;1.27;0.60;;;;;;;34.07;30.24;95994.22;5133763;27;20483;-55
2023/10/05 09:47:42;;;;;;;0.87;0.70;;;;;;;34.48;29.97;96032.81;5132978;27;20502;-55
2023/10/05 09:50:13;;;;;;;1.00;0.90;;;;;;;35.48;28.92;96023.13;5133616;27;20954;-55
2023/10/05 09:52:45;;;;;;;0.40;0.30;;;;;;;34.80;28.98;96027.03;5132807;27;20985;-55
2023/10/05 09:55:17;;;;;;;3.27;0.70;;;;;;;34.65;30.04;96025.59;5132944;27;20513;-55
2023/10/05 09:57:51;;;;;;;0.50;0.50;;;;;;;35.29;29.58;96012.75;5132922;27;20966;-55
2023/10/05 10:00:30;;;;;;;1.27;0.30;;;;;;;35.94;28.75;96006.00;5132564;27;20441;-55
2023/10/05 10:03:00;;;;;;;1.23;0.60;;;;;;;35.31;29.41;95996.56;5132093;27;20532;-55
2023/10/05 10:05:36;;;;;;;2.77;0.60;;;;;;;35.58;28.71;95989.16;5132495;27;20966;-56
2023/10/05 10:08:12;;;;;;;0.50;0.50;;;;;;;35.28;28.70;95997.41;5132798;27;20195;-54
2023/10/05 10:10:51;;;;;;;0.87;0.87;;;;;;;35.40;29.45;95977.53;5132319;27;20194;-55
2023/10/05 10:13:22;;;;;;;0.57;0.57;;;;;;;35.05;29.83;95981.53;5132403;27;20215;-55
2023/10/05 10:15:56;;;;;;;0.60;0.60;;;;;;;34.83;28.69;95930.59;5133336;27;20570;-55
2023/10/05 10:18:37;;;;;;;0.60;0.40;;;;;;;35.16;28.22;95973.13;5132902;27;20195;-55
2023/10/05 10:21:12;;;;;;;1.60;0.93;;;;;;;36.13;27.49;95971.44;5132766;27;20708;-55
2023/10/05 10:23:51;;;;;;;0.87;0.43;;;;;;;36.34;27.72;95962.78;5132257;27;20287;-55
2023/10/05 10:26:24;;;;;;;0.80;0.53;;;;;;;35.51;25.54;95960.88;5132857;27;20199;-56
2023/10/05 10:28:58;;;;;;;0.60;0.30;;;;;;;36.42;27.05;95968.97;5131683;27;20571;-55
2023/10/05 10:31:42;;;;;;;0.57;0.47;;;;;;;35.11;27.02;95954.31;5132578;27;20199;-55
2023/10/05 10:34:19;;;;;;;2.87;0.60;;;;;;;35.03;27.12;95950.03;5132559;27;20303;-56
2023/10/05 10:36:52;;;;;;;0.50;0.47;;;;;;;36.13;27.56;95913.47;5132715;27;20184;-56
2023/10/05 10:39:24;;;;;;;1.60;0.40;;;;;;;37.26;25.65;95931.47;5131443;27;20200;-56
2023/10/05 10:42:01;;;;;;;0.80;0.40;;;;;;;35.48;25.39;95939.63;5131875;27;20244;-56
2023/10/05 10:44:41;;;;;;;0.60;0.50;;;;;;;35.74;25.96;95891.22;5132270;28;20286;-56
2023/10/05 10:47:12;;;;;;;0.93;0.83;;;;;;;35.50;25.18;95923.44;5132541;28;20223;-56
2023/10/05 10:49:41;;;;;;;0.50;0.40;;;;;;;36.00;25.29;95926.31;5119024;28;20192;-55
2023/10/05 10:52:11;;;;;;;0.60;0.43;;;;;;;35.95;26.33;95910.19;5132251;28;20594;-56
2023/10/05 10:55:01;;;;;;;0.33;0.30;;;;;;;36.79;25.77;95907.94;5132243;27;20200;-60
2023/10/05 10:57:31;;;;;;;0.50;0.40;;;;;;;35.51;26.11;95870.66;5132523;28;20678;-60
2023/10/05 11:02:42;;;;;;;2.00;0.40;;;;;;;34.84;25.97;95857.75;5106079;28;20600;-61
2023/10/05 11:05:16;;;;;;;1.33;0.77;;;;;;;34.36;25.63;95882.69;5131485;27;20657;-60
2023/10/05 11:07:49;;;;;;;0.70;0.70;;;;;;;35.23;26.11;95875.78;5131871;28;20569;-59
2023/10/05 11:10:19;;;;;;;0.30;0.30;;;;;;;36.05;24.21;95863.09;5131992;27;20199;-60
2023/10/05 11:12:54;;;;;;;0.50;0.50;;;;;;;35.79;24.22;95872.22;5131963;28;20212;-60
2023/10/05 11:15:30;;;;;;;3.10;1.43;;;;;;;35.85;23.98;95880.81;5132218;27;20623;-61
2023/10/05 11:18:00;;;;;;;1.13;0.70;;;;;;;35.94;24.58;95872.75;5131770;27;20593;-60
2023/10/05 11:20:36;;;;;;;2.13;1.10;;;;;;;35.18;23.82;95865.22;5131498;28;20210;-60
2023/10/05 11:23:10;;;;;;;0.70;0.50;;;;;;;35.07;24.17;95868.91;5131464;28;20564;-60
2023/10/05 11:25:45;;;;;;;0.63;0.40;;;;;;;34.83;24.03;95870.00;5132312;28;20323;-59
2023/10/05 11:28:30;;;;;;;0.40;0.40;;;;;;;35.41;23.64;95840.47;5131376;28;20189;-59
2023/10/05 11:30:59;;;;;;;1.17;1.17;;;;;;;36.02;23.91;95861.22;5131952;27;20239;-60
2023/10/05 11:33:49;;;;;;;0.57;0.45;;;;;;;37.58;22.32;95847.81;5131748;28;20333;-60
2023/10/05 11:36:39;;;;;;;0.50;0.43;;;;;;;36.76;22.72;95853.53;5131426;27;20196;-60
2023/10/05 11:39:21;;;;;;;0.30;0.30;;;;;;;37.09;23.02;95844.16;5132157;27;20188;-60
2023/10/05 11:41:52;;;;;;;1.05;0.60;;;;;;;35.64;23.00;95844.09;5131809;28;20230;-60
2023/10/05 11:44:24;;;;;;;0.40;0.30;;;;;;;35.86;23.30;95844.50;5131851;28;20241;-59
2023/10/05 11:46:53;;;;;;;1.10;0.50;;;;;;;36.81;22.57;95834.47;5131782;27;20222;-60
2023/10/05 11:49:30;;;;;;;0.47;0.30;;;;;;;37.26;22.88;95837.47;5131360;28;20253;-60
2023/10/05 11:52:00;;;;;;;0.40;0.40;;;;;;;37.67;22.86;95823.09;5133665;27;20278;-60
2023/10/05 11:54:30;;;;;;;4.68;0.60;;;;;;;37.35;22.52;95829.34;5135820;27;20234;-60
2023/10/05 11:57:04;;;;;;;0.75;0.60;;;;;;;36.04;22.38;95820.16;5135266;27;20192;-59
2023/10/05 11:59:35;;;;;;;0.65;0.52;;;;;;;36.01;23.15;95787.91;5135032;27;20284;-60
2023/10/05 12:02:05;;;;;;;1.50;0.50;;;;;;;36.61;23.66;95819.88;5135221;27;20238;-59